createdAt,value
2017-09-11T00:00:56.346Z,3.50
2017-09-11T00:03:23.852Z,3.00
2017-09-11T00:05:51.356Z,3.22
2017-09-11T00:08:18.861Z,3.47
2017-09-11T00:10:46.365Z,3.50
2017-09-11T00:13:13.876Z,4.40
2017-09-11T00:15:41.385Z,3.78
2017-09-11T00:18:09.897Z,3.45
2017-09-11T00:20:37.405Z,2.92
2017-09-11T00:23:04.914Z,2.85
2017-09-11T00:25:32.443Z,3.55
2017-09-11T00:27:59.949Z,4.00
2017-09-11T00:30:27.459Z,2.85
2017-09-11T00:32:54.961Z,2.78
2017-09-11T00:35:23.454Z,2.55
2017-09-11T00:37:51.982Z,2.10
2017-09-11T00:40:19.486Z,2.60
2017-09-11T00:42:46.989Z,2.70
2017-09-11T00:45:14.557Z,2.90
2017-09-11T00:47:42.058Z,2.75
2017-09-11T00:50:09.561Z,2.45
2017-09-11T00:52:37.065Z,2.55
2017-09-11T00:55:04.570Z,3.08
2017-09-11T00:57:32.072Z,2.55
2017-09-11T00:59:59.585Z,2.67
2017-09-11T01:02:27.089Z,2.60
2017-09-11T01:04:54.590Z,2.53
2017-09-11T01:07:22.208Z,2.50
2017-09-11T01:09:50.735Z,2.60
2017-09-11T01:12:18.327Z,2.80
2017-09-11T01:14:45.837Z,2.37
2017-09-11T01:17:14.346Z,2.80
2017-09-11T01:19:41.857Z,2.47
2017-09-11T01:22:09.361Z,2.50
2017-09-11T01:24:36.869Z,2.70
2017-09-11T01:27:04.370Z,2.17
2017-09-11T01:29:31.871Z,2.15
2017-09-11T01:31:59.373Z,2.03
2017-09-11T01:34:26.873Z,2.03
2017-09-11T01:36:54.375Z,2.12
2017-09-11T01:39:21.878Z,1.90
2017-09-11T01:41:49.380Z,1.95
2017-09-11T01:44:16.886Z,2.53
2017-09-11T01:46:44.264Z,2.00
2017-09-11T01:49:11.777Z,2.22
2017-09-11T01:51:39.096Z,1.77
2017-09-11T01:54:06.603Z,2.55
2017-09-11T01:56:35.216Z,2.70
2017-09-11T01:59:03.722Z,2.60
2017-09-11T02:01:32.214Z,2.67
2017-09-11T02:03:59.718Z,1.90
2017-09-11T02:06:27.222Z,1.55
2017-09-11T02:08:54.730Z,2.05
2017-09-11T02:11:22.313Z,1.30
2017-09-11T02:13:49.873Z,1.48
2017-09-11T02:16:17.196Z,1.40
2017-09-11T02:18:44.701Z,1.37
2017-09-11T02:21:12.206Z,1.60
2017-09-11T02:23:41.685Z,1.33
2017-09-11T02:26:09.184Z,1.48
2017-09-11T02:28:36.766Z,1.30
2017-09-11T02:31:04.270Z,1.40
2017-09-11T02:33:31.778Z,1.70
2017-09-11T02:35:59.286Z,1.58
2017-09-11T02:38:26.784Z,1.40
2017-09-11T02:40:54.278Z,1.20
2017-09-11T02:43:21.703Z,2.10
2017-09-11T02:45:49.289Z,2.17
2017-09-11T02:48:18.763Z,1.95
2017-09-11T02:50:46.277Z,1.95
2017-09-11T02:53:13.783Z,2.00
2017-09-11T02:55:41.289Z,1.90
2017-09-11T02:58:08.810Z,2.40
2017-09-11T03:00:36.314Z,2.12
2017-09-11T03:03:03.816Z,2.40
2017-09-11T03:05:31.387Z,2.85
2017-09-11T03:07:58.889Z,2.25
2017-09-11T03:10:26.388Z,2.70
2017-09-11T03:12:53.888Z,2.30
2017-09-11T03:15:21.522Z,2.60
2017-09-11T03:17:49.026Z,2.10
2017-09-11T03:20:16.535Z,2.67
2017-09-11T03:22:44.099Z,2.60
2017-09-11T03:25:11.603Z,2.30
2017-09-11T03:27:39.101Z,2.62
2017-09-11T03:30:06.603Z,2.33
2017-09-11T03:32:34.108Z,2.35
2017-09-11T03:35:01.614Z,2.83
2017-09-11T03:37:29.121Z,2.00
2017-09-11T03:39:56.626Z,2.28
2017-09-11T03:42:24.145Z,3.35
2017-09-11T03:44:51.661Z,3.60
2017-09-11T03:47:19.181Z,2.28
2017-09-11T03:49:46.697Z,2.10
2017-09-11T03:52:14.237Z,1.65
2017-09-11T03:54:41.738Z,2.25
2017-09-11T03:57:09.251Z,2.10
2017-09-11T03:59:36.794Z,2.15
2017-09-11T04:02:04.533Z,2.20
2017-09-11T04:04:32.034Z,1.87
2017-09-11T04:06:59.538Z,2.00
2017-09-11T04:09:27.046Z,1.90
2017-09-11T04:11:54.590Z,1.98
2017-09-11T04:14:22.313Z,1.42
2017-09-11T04:16:49.912Z,1.45
2017-09-11T04:19:17.408Z,1.60
2017-09-11T04:21:44.926Z,2.50
2017-09-11T04:24:12.426Z,1.35
2017-09-11T04:26:39.922Z,1.65
2017-09-11T04:29:07.432Z,1.62
2017-09-11T04:31:34.932Z,1.40
2017-09-11T04:34:02.530Z,1.37
2017-09-11T04:36:30.070Z,1.30
2017-09-11T04:38:57.573Z,1.30
2017-09-11T04:41:24.887Z,1.50
2017-09-11T04:43:52.385Z,1.50
2017-09-11T04:46:19.889Z,1.30
2017-09-11T04:48:47.391Z,1.40
2017-09-11T04:51:14.896Z,1.70
2017-09-11T04:53:42.405Z,1.50
2017-09-11T04:56:09.904Z,1.42
2017-09-11T04:58:37.501Z,1.70
2017-09-11T05:01:05.001Z,1.37
2017-09-11T05:03:32.505Z,1.40
2017-09-11T05:06:00.009Z,1.40
2017-09-11T05:08:28.537Z,1.60
2017-09-11T05:10:56.028Z,1.50
2017-09-11T05:13:23.529Z,1.60
2017-09-11T05:15:51.030Z,1.50
2017-09-11T05:18:18.522Z,1.42
2017-09-11T05:20:46.031Z,1.45
2017-09-11T05:23:13.543Z,1.30
2017-09-11T05:25:41.049Z,1.40
2017-09-11T05:28:08.549Z,1.62
2017-09-11T05:30:35.867Z,1.40
2017-09-11T05:33:04.460Z,0.98
2017-09-11T05:35:31.957Z,1.27
2017-09-11T05:37:59.457Z,1.55
2017-09-11T05:40:26.957Z,1.48
2017-09-11T05:42:54.457Z,1.35
2017-09-11T05:45:21.965Z,1.77
2017-09-11T05:47:49.465Z,1.58
2017-09-11T05:50:17.069Z,1.70
2017-09-11T05:52:44.571Z,1.60
2017-09-11T05:55:12.074Z,2.30
2017-09-11T05:57:39.577Z,2.37
2017-09-11T06:00:07.081Z,2.00
2017-09-11T06:02:34.582Z,1.40
2017-09-11T06:05:02.082Z,1.48
2017-09-11T06:07:29.589Z,1.30
2017-09-11T06:09:58.085Z,1.40
2017-09-11T06:12:26.568Z,1.30
2017-09-11T06:14:54.073Z,1.60
2017-09-11T06:17:21.578Z,1.40
2017-09-11T06:19:49.072Z,1.30
2017-09-11T06:22:16.570Z,1.10
2017-09-11T06:24:44.065Z,1.00
2017-09-11T06:27:11.370Z,1.00
2017-09-11T06:29:38.865Z,0.85
2017-09-11T06:32:06.173Z,0.93
2017-09-11T06:34:35.626Z,0.98
2017-09-11T06:37:03.129Z,1.20
2017-09-11T06:39:30.629Z,1.45
2017-09-11T06:41:58.129Z,0.95
2017-09-11T06:44:25.625Z,0.90
2017-09-11T06:46:53.126Z,0.88
2017-09-11T06:49:20.629Z,1.00
2017-09-11T06:51:48.122Z,0.90
2017-09-11T06:54:15.617Z,1.00
2017-09-11T06:56:43.132Z,0.90
2017-09-11T06:59:10.638Z,0.95
2017-09-11T07:01:38.141Z,0.90
2017-09-11T07:04:07.573Z,0.85
2017-09-11T07:06:35.073Z,0.70
2017-09-11T07:09:02.377Z,0.90
2017-09-11T07:11:29.922Z,0.70
2017-09-11T07:13:58.413Z,0.75
2017-09-11T07:16:25.913Z,0.93
2017-09-11T07:18:53.511Z,0.60
2017-09-11T07:21:21.005Z,0.60
2017-09-11T07:23:48.501Z,0.73
2017-09-11T07:26:16.002Z,0.60
2017-09-11T07:28:43.502Z,0.73
2017-09-11T07:31:11.104Z,0.80
2017-09-11T07:33:38.600Z,0.85
2017-09-11T07:36:06.102Z,1.08
2017-09-11T07:38:33.606Z,0.70
2017-09-11T07:41:01.113Z,0.80
2017-09-11T07:43:28.617Z,0.75
2017-09-11T07:45:56.118Z,0.80
2017-09-11T07:48:24.598Z,0.70
2017-09-11T07:50:52.093Z,0.80
2017-09-11T07:53:19.318Z,0.60
2017-09-11T07:55:46.538Z,0.70
2017-09-11T07:58:13.756Z,0.80
2017-09-11T08:00:40.982Z,0.70
2017-09-11T08:03:10.153Z,0.60
2017-09-11T08:05:37.369Z,0.70
2017-09-11T08:08:04.866Z,0.90
2017-09-11T08:10:32.370Z,0.90
2017-09-11T08:12:59.590Z,1.63
2017-09-11T08:15:29.036Z,1.00
2017-09-11T08:17:56.258Z,0.87
2017-09-11T08:20:23.486Z,0.70
2017-09-11T08:22:50.717Z,0.80
2017-09-11T08:25:17.938Z,0.90
2017-09-11T08:27:47.146Z,0.90
2017-09-11T08:30:14.433Z,0.80
2017-09-11T08:32:41.658Z,0.90
2017-09-11T08:35:08.883Z,0.80
2017-09-11T08:37:35.915Z,0.73
2017-09-11T08:40:03.137Z,0.80
2017-09-11T08:42:30.357Z,0.83
2017-09-11T08:44:57.683Z,1.00
2017-09-11T08:47:26.858Z,1.10
2017-09-11T08:49:54.087Z,1.00
2017-09-11T08:52:21.313Z,1.10
2017-09-11T08:54:48.546Z,1.00
2017-09-11T08:57:15.775Z,0.90
2017-09-11T08:59:42.997Z,1.00
2017-09-11T09:02:12.136Z,1.10
2017-09-11T09:04:39.370Z,1.10
2017-09-11T09:07:06.600Z,1.00
2017-09-11T09:09:33.823Z,1.30
2017-09-11T09:12:01.144Z,1.00
2017-09-11T09:14:28.369Z,1.37
2017-09-11T09:16:55.590Z,0.80
2017-09-11T09:19:22.812Z,0.90
2017-09-11T09:21:50.032Z,0.97
2017-09-11T09:24:17.255Z,1.07
2017-09-11T09:26:44.484Z,1.10
2017-09-11T09:29:11.808Z,1.30
2017-09-11T09:31:39.030Z,1.30
2017-09-11T09:34:06.070Z,1.27
2017-09-11T09:36:33.302Z,1.07
2017-09-11T09:39:00.521Z,1.50
2017-09-11T09:41:27.748Z,1.43
2017-09-11T09:43:54.984Z,1.27
2017-09-11T09:46:22.213Z,1.23
2017-09-11T09:48:49.825Z,1.10
2017-09-11T09:51:17.054Z,1.30
2017-09-11T09:53:44.282Z,0.90
2017-09-11T09:56:11.505Z,0.93
2017-09-11T09:58:38.732Z,0.90
2017-09-11T10:01:05.775Z,1.10
2017-09-11T10:03:33.005Z,1.10
2017-09-11T10:06:00.235Z,1.13
2017-09-11T10:08:29.365Z,1.03
2017-09-11T10:10:56.589Z,0.80
2017-09-11T10:13:23.810Z,1.30
2017-09-11T10:15:51.041Z,0.90
2017-09-11T10:18:20.221Z,1.20
2017-09-11T10:20:47.449Z,1.17
2017-09-11T10:23:14.678Z,0.83
2017-09-11T10:25:41.909Z,1.00
2017-09-11T10:28:09.241Z,0.90
2017-09-11T10:30:36.462Z,0.70
2017-09-11T10:33:03.693Z,1.00
2017-09-11T10:35:30.914Z,0.80
2017-09-11T10:37:58.138Z,1.23
2017-09-11T10:40:25.365Z,1.10
2017-09-11T10:42:54.533Z,1.20
2017-09-11T10:45:21.850Z,0.97
2017-09-11T10:47:49.077Z,1.03
2017-09-11T10:50:16.297Z,1.00
2017-09-11T10:52:43.518Z,0.90
2017-09-11T10:55:12.681Z,0.70
2017-09-11T10:57:39.938Z,0.97
2017-09-11T11:00:07.168Z,0.80
2017-09-11T11:02:34.394Z,1.03
2017-09-11T11:05:01.614Z,1.00
2017-09-11T11:07:28.825Z,1.00
2017-09-11T11:09:56.046Z,0.83
2017-09-11T11:12:23.270Z,1.00
2017-09-11T11:14:50.494Z,0.70
2017-09-11T11:17:17.718Z,0.90
2017-09-11T11:19:45.027Z,0.80
2017-09-11T11:22:12.254Z,0.97
2017-09-11T11:24:39.490Z,1.00
2017-09-11T11:27:06.718Z,0.90
2017-09-11T11:29:33.941Z,0.90
2017-09-11T11:32:02.245Z,0.90
2017-09-11T11:34:29.283Z,0.80
2017-09-11T11:36:56.506Z,0.70
2017-09-11T11:39:25.669Z,1.10
2017-09-11T11:41:52.889Z,1.00
2017-09-11T11:44:20.117Z,1.17
2017-09-11T11:46:47.346Z,1.10
2017-09-11T11:49:14.565Z,1.20
2017-09-11T11:51:41.789Z,0.90
2017-09-11T11:54:09.017Z,1.07
2017-09-11T11:56:36.238Z,1.07
2017-09-11T11:59:03.460Z,1.00
2017-09-11T12:01:30.683Z,0.90
2017-09-11T12:03:57.904Z,1.00
2017-09-11T12:06:25.125Z,1.00
2017-09-11T12:08:52.349Z,1.50
2017-09-11T12:11:19.573Z,0.90
2017-09-11T12:13:46.794Z,0.87
2017-09-11T12:16:14.013Z,0.93
2017-09-11T12:18:41.233Z,0.90
2017-09-11T12:21:08.453Z,1.00
2017-09-11T12:23:35.681Z,0.90
2017-09-11T12:26:02.982Z,0.80
2017-09-11T12:28:30.198Z,0.93
2017-09-11T12:30:57.421Z,0.87
2017-09-11T12:33:24.470Z,1.50
2017-09-11T12:35:52.469Z,0.80
2017-09-11T12:38:19.693Z,0.80
2017-09-11T12:40:46.916Z,1.07
2017-09-11T12:43:14.141Z,1.07
2017-09-11T12:45:41.366Z,0.70
2017-09-11T12:48:10.548Z,0.90
2017-09-11T12:50:37.860Z,0.73
2017-09-11T12:53:07.030Z,0.80
2017-09-11T12:55:34.249Z,0.83
2017-09-11T12:58:01.462Z,0.87
2017-09-11T13:00:30.629Z,0.80
2017-09-11T13:02:57.670Z,0.70
2017-09-11T13:05:24.701Z,0.80
2017-09-11T13:07:51.733Z,0.70
2017-09-11T13:10:18.954Z,0.77
2017-09-11T13:12:46.172Z,0.90
2017-09-11T13:15:13.493Z,0.70
2017-09-11T13:17:40.714Z,1.00
2017-09-11T13:20:07.933Z,0.90
2017-09-11T13:22:35.159Z,0.80
2017-09-11T13:25:02.405Z,0.90
2017-09-11T13:27:29.626Z,1.40
2017-09-11T13:29:56.852Z,0.70
2017-09-11T13:32:24.073Z,0.90
2017-09-11T13:34:51.296Z,0.87
2017-09-11T13:37:18.518Z,1.07
2017-09-11T13:39:45.741Z,0.80
2017-09-11T13:42:12.778Z,0.70
2017-09-11T13:44:39.998Z,0.90
2017-09-11T13:47:07.222Z,0.80
2017-09-11T13:49:34.446Z,1.00
2017-09-11T13:52:03.609Z,0.70
2017-09-11T13:54:30.825Z,0.70
2017-09-11T13:56:58.045Z,0.70
2017-09-11T13:59:25.261Z,0.70
2017-09-11T14:01:52.482Z,0.90
2017-09-11T14:04:19.701Z,0.77
2017-09-11T14:06:46.927Z,0.80
2017-09-11T14:09:14.155Z,0.70
2017-09-11T14:11:41.486Z,0.87
2017-09-11T14:14:08.754Z,0.80
2017-09-11T14:17:04.913Z,0.80
2017-09-11T14:19:34.113Z,0.90
2017-09-11T14:22:01.333Z,0.90
2017-09-11T14:24:29.364Z,0.90
2017-09-11T14:26:56.585Z,0.80
2017-09-11T14:29:23.805Z,1.00
2017-09-11T14:31:51.029Z,0.77
2017-09-11T14:34:18.254Z,1.00
2017-09-11T14:36:45.479Z,1.00
2017-09-11T14:39:13.448Z,0.60
2017-09-11T14:41:40.669Z,0.80
2017-09-11T14:44:09.841Z,0.90
2017-09-11T14:46:37.081Z,0.87
2017-09-11T14:49:04.312Z,0.90
2017-09-11T14:51:33.505Z,0.63
2017-09-11T14:54:00.724Z,0.93
2017-09-11T14:56:27.949Z,0.80
2017-09-11T14:58:55.170Z,1.00
2017-09-11T15:01:22.209Z,0.90
2017-09-11T15:03:49.434Z,0.80
2017-09-11T15:06:16.657Z,1.13
2017-09-11T15:08:43.886Z,1.20
2017-09-11T15:11:11.113Z,1.00
2017-09-11T15:13:38.148Z,0.87
2017-09-11T15:16:05.373Z,0.90
2017-09-11T15:18:32.601Z,1.10
2017-09-11T15:20:59.833Z,0.90
2017-09-11T15:23:27.063Z,1.10
2017-09-11T15:25:54.289Z,0.70
2017-09-11T15:28:21.509Z,1.00
2017-09-11T15:30:48.737Z,1.00
2017-09-11T15:33:16.765Z,0.90
2017-09-11T15:35:43.801Z,0.93
2017-09-11T15:38:10.834Z,0.97
2017-09-11T15:40:38.065Z,1.10
2017-09-11T15:43:05.289Z,1.00
2017-09-11T15:45:32.549Z,0.93
2017-09-11T15:47:59.769Z,0.93
2017-09-11T15:50:27.098Z,0.95
2017-09-11T15:52:54.326Z,0.97
2017-09-11T15:55:21.551Z,0.97
2017-09-11T15:57:49.956Z,0.93
2017-09-11T16:00:17.177Z,0.90
2017-09-11T16:02:44.498Z,0.90
2017-09-11T16:05:11.729Z,1.00
2017-09-11T16:07:38.953Z,0.97
2017-09-11T16:10:06.190Z,1.20
2017-09-11T16:12:33.685Z,1.15
2017-09-11T16:15:01.199Z,0.88
2017-09-11T16:17:28.701Z,0.70
2017-09-11T16:19:56.218Z,1.02
2017-09-11T16:22:23.729Z,0.80
2017-09-11T16:24:51.233Z,0.80
2017-09-11T16:27:18.755Z,0.73
2017-09-11T16:29:46.262Z,0.70
2017-09-11T16:32:13.776Z,0.90
2017-09-11T16:34:41.274Z,0.73
2017-09-11T16:37:08.788Z,0.75
2017-09-11T16:39:36.287Z,0.80
2017-09-11T16:42:03.786Z,0.95
2017-09-11T16:44:32.282Z,0.90
2017-09-11T16:46:59.786Z,0.90
2017-09-11T16:49:27.293Z,0.65
2017-09-11T16:51:54.798Z,0.77
2017-09-11T16:54:22.106Z,0.70
2017-09-11T16:56:49.427Z,0.98
2017-09-11T16:59:17.737Z,1.20
2017-09-11T17:01:45.056Z,0.90
2017-09-11T17:04:12.571Z,1.10
2017-09-11T17:06:40.069Z,1.00
2017-09-11T17:09:07.579Z,1.20
2017-09-11T17:11:35.101Z,1.85
2017-09-11T17:14:02.627Z,3.22
2017-09-11T17:16:30.151Z,1.35
2017-09-11T17:18:57.666Z,1.70
2017-09-11T17:21:25.170Z,1.55
2017-09-11T17:23:52.677Z,1.30
2017-09-11T17:26:21.174Z,1.80
2017-09-11T17:28:48.688Z,2.85
2017-09-11T17:31:16.198Z,3.05
2017-09-11T17:33:43.713Z,1.50
2017-09-11T17:36:11.226Z,1.62
2017-09-11T17:38:38.554Z,1.85
2017-09-11T17:41:05.875Z,1.40
2017-09-11T17:43:33.382Z,1.60
2017-09-11T17:46:00.702Z,1.00
2017-09-11T17:48:28.121Z,1.30
2017-09-11T17:50:55.601Z,1.17
2017-09-11T17:53:23.110Z,1.48
2017-09-11T17:55:50.617Z,1.33
2017-09-11T17:58:18.134Z,2.72
2017-09-11T18:00:45.658Z,6.80
2017-09-11T18:03:13.273Z,4.82
2017-09-11T18:05:40.793Z,4.75
2017-09-11T18:08:08.305Z,2.85
2017-09-11T18:10:35.809Z,1.48
2017-09-11T18:13:03.136Z,1.08
2017-09-11T18:15:30.457Z,2.62
2017-09-11T18:17:57.774Z,1.30
2017-09-11T18:20:25.286Z,1.58
2017-09-11T18:22:52.796Z,1.45
2017-09-11T18:25:20.297Z,1.35
2017-09-11T18:27:47.809Z,1.85
2017-09-11T18:30:15.318Z,1.30
2017-09-11T18:32:44.777Z,1.23
2017-09-11T18:35:13.480Z,1.10
2017-09-11T18:37:42.014Z,1.00
2017-09-11T18:40:10.607Z,1.10
2017-09-11T18:42:38.110Z,1.30
2017-09-11T18:45:05.618Z,1.48
2017-09-11T18:47:33.234Z,1.25
2017-09-11T18:50:00.746Z,1.20
2017-09-11T18:52:28.248Z,1.00
2017-09-11T18:54:55.753Z,1.20
2017-09-11T18:57:23.257Z,2.03
2017-09-11T18:59:50.766Z,1.85
2017-09-11T19:02:18.272Z,1.60
2017-09-11T19:04:47.773Z,2.83
2017-09-11T19:07:15.314Z,3.85
2017-09-11T19:09:44.340Z,3.00
2017-09-11T19:12:11.852Z,2.10
2017-09-11T19:14:39.373Z,3.03
2017-09-11T19:17:11.634Z,2.28
2017-09-11T19:19:41.047Z,1.30
2017-09-11T19:22:08.712Z,1.10
2017-09-11T19:24:36.226Z,1.30
2017-09-11T19:27:03.737Z,1.70
2017-09-11T19:29:31.379Z,1.40
2017-09-11T19:31:58.902Z,1.30
2017-09-11T19:34:28.044Z,1.17
2017-09-11T19:36:55.660Z,1.40
2017-09-11T19:39:23.166Z,1.23
2017-09-11T19:41:50.694Z,1.50
2017-09-11T19:44:18.202Z,2.10
2017-09-11T19:46:45.786Z,1.55
2017-09-11T19:49:13.383Z,1.30
2017-09-11T19:51:40.709Z,1.45
2017-09-11T19:54:08.223Z,1.70
2017-09-11T19:56:35.752Z,1.65
2017-09-11T19:59:03.260Z,1.25
2017-09-11T20:01:32.706Z,1.23
2017-09-11T20:04:00.210Z,1.50
2017-09-11T20:06:27.834Z,1.58
2017-09-11T20:08:57.278Z,1.25
2017-09-11T20:11:24.900Z,1.85
2017-09-11T20:13:52.218Z,1.25
2017-09-11T20:16:19.538Z,1.50
2017-09-11T20:18:46.855Z,1.00
2017-09-11T20:21:14.359Z,0.93
2017-09-11T20:23:41.865Z,1.02
2017-09-11T20:26:09.369Z,1.35
2017-09-11T20:28:36.894Z,1.45
2017-09-11T20:31:04.408Z,1.60
2017-09-11T20:33:32.920Z,1.20
2017-09-11T20:36:00.800Z,1.73
2017-09-11T20:38:28.314Z,1.45
2017-09-11T20:40:55.641Z,1.42
2017-09-11T20:43:23.897Z,1.08
2017-09-11T20:45:51.214Z,1.58
2017-09-11T20:48:18.532Z,1.12
2017-09-11T20:50:46.035Z,1.30
2017-09-11T20:53:13.615Z,1.30
2017-09-11T20:55:41.144Z,1.60
2017-09-11T20:58:08.678Z,1.12
2017-09-11T21:00:36.193Z,1.48
2017-09-11T21:03:04.515Z,1.10
2017-09-11T21:05:32.057Z,1.00
2017-09-11T21:07:59.567Z,1.40
2017-09-11T21:10:27.082Z,1.60
2017-09-11T21:12:54.982Z,1.42
2017-09-11T21:15:22.485Z,1.50
2017-09-11T21:17:50.006Z,1.40
2017-09-11T21:20:17.329Z,1.65
2017-09-11T21:22:44.837Z,1.50
2017-09-11T21:25:12.349Z,1.48
2017-09-11T21:27:39.851Z,1.40
2017-09-11T21:30:07.365Z,3.20
2017-09-11T21:32:34.962Z,1.30
2017-09-11T21:35:02.509Z,1.25
2017-09-11T21:37:30.048Z,1.05
2017-09-11T21:39:57.554Z,1.50
2017-09-11T21:42:25.054Z,1.30
2017-09-11T21:44:54.529Z,1.45
2017-09-11T21:47:23.976Z,1.77
2017-09-11T21:49:51.481Z,1.25
2017-09-11T21:52:18.986Z,1.10
2017-09-11T21:54:46.504Z,1.45
2017-09-11T21:57:14.015Z,1.75
2017-09-11T21:59:41.521Z,1.58
2017-09-11T22:02:09.113Z,1.15
2017-09-11T22:04:36.622Z,1.20
2017-09-11T22:07:04.134Z,1.10
2017-09-11T22:09:31.646Z,1.42
2017-09-11T22:11:59.158Z,1.30
2017-09-11T22:14:26.672Z,1.40
2017-09-11T22:16:54.177Z,1.60
2017-09-11T22:19:21.689Z,1.37
2017-09-11T22:21:49.197Z,1.70
2017-09-11T22:24:16.702Z,1.12
2017-09-11T22:26:44.234Z,1.90
2017-09-11T22:29:11.749Z,1.30
2017-09-11T22:31:39.359Z,1.77
2017-09-11T22:34:06.866Z,1.80
2017-09-11T22:36:34.370Z,1.52
2017-09-11T22:39:03.829Z,2.25
2017-09-11T22:41:31.150Z,1.80
2017-09-11T22:43:58.748Z,1.50
2017-09-11T22:46:26.273Z,2.20
2017-09-11T22:48:53.588Z,1.42
2017-09-11T22:51:21.102Z,1.45
2017-09-11T22:53:48.610Z,1.85
2017-09-11T22:56:16.119Z,1.40
2017-09-11T22:58:43.627Z,1.25
2017-09-11T23:01:12.154Z,1.30
2017-09-11T23:03:39.661Z,1.55
2017-09-11T23:06:07.164Z,1.40
2017-09-11T23:08:34.673Z,1.92
2017-09-11T23:11:02.181Z,1.30
2017-09-11T23:13:29.685Z,1.40
2017-09-11T23:15:57.194Z,1.15
2017-09-11T23:18:24.701Z,1.20
2017-09-11T23:20:52.214Z,1.60
2017-09-11T23:23:19.721Z,1.45
2017-09-11T23:25:47.229Z,1.33
2017-09-11T23:28:14.746Z,1.20
2017-09-11T23:30:44.631Z,1.50
2017-09-11T23:33:12.397Z,1.90
2017-09-11T23:35:39.901Z,1.55
2017-09-11T23:38:08.408Z,1.48
2017-09-11T23:40:35.913Z,1.70
2017-09-11T23:43:03.426Z,1.60
2017-09-11T23:45:31.367Z,1.45
2017-09-11T23:47:58.887Z,1.85
2017-09-11T23:50:26.397Z,1.20
2017-09-11T23:52:53.905Z,1.50
2017-09-11T23:55:21.502Z,1.27
2017-09-11T23:57:50.014Z,1.83
